Time;durP1;ratioP1;P1;durP2;ratioP2;P2;SDS_P1;SDS_P2;PMS_P1;PMS_P2;Temp;Humidity;BMP_temperature;BMP_pressure;BME280_temperature;BME280_humidity;BME280_pressure;Samples;Min_cycle;Max_cycle;Signal;HPM_P1;HPM_P2
2022/07/13 00:00:53;;;;;;;2.23;1.53;;;24.10;59.10;;;26.60;44.78;102014.63;5095450;28;20699;-59
2022/07/13 00:03:20;;;;;;;1.40;1.30;;;24.00;59.20;;;26.58;44.60;102018.66;5096310;28;20195;-58
2022/07/13 00:05:48;;;;;;;2.87;1.80;;;24.00;59.30;;;26.53;45.09;102011.31;5095835;28;20258;-60
2022/07/13 00:08:15;;;;;;;1.50;1.40;;;24.00;59.40;;;26.51;44.64;102018.00;5095429;28;20185;-60
2022/07/13 00:10:44;;;;;;;1.70;1.50;;;24.00;59.50;;;26.48;45.15;102015.84;5095392;28;20188;-58
2022/07/13 00:13:12;;;;;;;1.60;1.50;;;23.90;59.40;;;26.46;44.65;101999.84;5095843;28;20204;-57
2022/07/13 00:15:39;;;;;;;1.40;1.30;;;23.90;59.60;;;26.44;44.54;102007.41;5104287;28;20195;-58
2022/07/13 00:18:06;;;;;;;2.13;1.40;;;23.90;59.60;;;26.41;44.95;102007.88;5115563;28;20192;-61
2022/07/13 00:20:34;;;;;;;1.73;1.63;;;23.90;59.70;;;26.40;44.92;102003.56;5115528;28;20202;-60
2022/07/13 00:23:01;;;;;;;2.63;1.33;;;23.90;59.70;;;26.41;44.54;102009.78;5115743;27;20211;-60
2022/07/13 00:25:29;;;;;;;1.33;1.27;;;23.80;59.60;;;26.43;44.90;102003.09;5115956;28;20196;-59
2022/07/13 00:27:57;;;;;;;2.30;1.37;;;23.80;59.70;;;26.45;44.37;101998.25;5116234;28;20196;-59
2022/07/13 00:30:25;;;;;;;2.63;1.80;;;23.80;59.70;;;26.42;45.12;101987.09;5115757;28;20191;-58
2022/07/13 00:32:52;;;;;;;1.80;1.70;;;23.80;59.80;;;26.39;45.00;101964.09;5095264;28;20215;-59
2022/07/13 00:35:20;;;;;;;2.27;1.30;;;23.80;59.90;;;26.37;44.91;101966.25;5095131;28;20300;-58
2022/07/13 00:37:48;;;;;;;1.30;1.20;;;23.80;59.90;;;26.38;44.65;101959.78;5095279;28;20184;-59
2022/07/13 00:40:15;;;;;;;2.80;1.60;;;23.80;59.90;;;26.38;45.35;101948.16;5095249;28;20185;-59
2022/07/13 00:42:43;;;;;;;1.30;1.20;;;23.80;60.00;;;26.37;44.97;101936.53;5094913;28;20213;-58
2022/07/13 00:45:12;;;;;;;1.50;1.40;;;23.80;60.90;;;26.40;45.22;101941.44;5095275;28;20185;-59
2022/07/13 00:47:41;;;;;;;2.47;1.37;;;23.70;60.20;;;26.39;44.84;101939.78;5097737;28;20207;-58
2022/07/13 00:50:10;;;;;;;1.57;1.47;;;23.70;60.20;;;26.40;45.09;101948.72;5114671;28;20596;-58
2022/07/13 00:52:39;;;;;;;2.40;1.50;;;23.70;60.10;;;26.40;44.68;101959.53;5115008;28;20212;-60
2022/07/13 00:55:09;;;;;;;1.10;1.10;;;23.70;60.00;;;26.42;44.54;101969.03;5115492;28;20192;-61
2022/07/13 00:57:38;;;;;;;1.23;1.03;;;23.70;60.00;;;26.46;44.69;101977.47;5114907;28;20184;-60
2022/07/13 01:00:10;;;;;;;1.20;1.10;;;23.70;59.90;;;26.50;44.57;101968.59;5115113;28;20188;-60
2022/07/13 01:02:39;;;;;;;1.87;1.40;;;23.70;59.80;;;26.54;44.18;101956.22;5114533;28;20298;-58
2022/07/13 01:05:10;;;;;;;1.33;1.27;;;23.70;59.80;;;26.49;43.86;101950.75;5102430;28;20212;-60
2022/07/13 01:07:38;;;;;;;1.20;1.20;;;23.70;59.50;;;26.42;44.32;101950.09;5094757;28;20189;-60
2022/07/13 01:10:11;;;;;;;1.63;1.53;;;23.70;59.40;;;26.36;44.36;101953.00;5095155;28;20204;-60
2022/07/13 01:12:40;;;;;;;1.43;1.33;;;23.70;59.40;;;26.29;44.91;101945.09;5094439;28;20215;-58
2022/07/13 01:15:09;;;;;;;1.20;1.20;;;23.70;59.40;;;26.24;44.77;101931.50;5094546;28;20185;-60
2022/07/13 01:17:39;;;;;;;1.50;1.23;;;23.70;59.40;;;26.19;44.52;101928.72;5094687;28;20200;-58
2022/07/13 01:20:09;;;;;;;1.43;1.33;;;23.60;59.60;;;26.14;44.66;101921.38;5095880;28;20191;-60
2022/07/13 01:22:43;;;;;;;2.97;1.50;;;23.60;59.60;;;26.09;45.42;101920.47;5094836;28;20565;-60
2022/07/13 01:25:14;;;;;;;1.50;1.40;;;23.60;59.80;;;26.04;44.88;101910.41;5094319;28;20683;-60
2022/07/13 01:27:45;;;;;;;2.50;1.60;;;23.50;59.90;;;25.97;45.84;101908.94;5093995;28;20223;-60
2022/07/13 01:30:13;;;;;;;1.73;1.63;;;23.50;60.10;;;25.91;45.80;101901.84;5094343;28;20184;-60
2022/07/13 01:32:46;;;;;;;1.20;1.13;;;23.50;60.40;;;25.85;46.14;101890.16;5093805;28;20216;-60
2022/07/13 01:35:15;;;;;;;2.03;1.53;;;23.40;60.50;;;25.88;45.46;101886.13;5094620;28;20199;-60
2022/07/13 01:37:44;;;;;;;1.60;1.50;;;23.40;60.40;;;25.92;45.90;101900.75;5095314;28;20200;-60
2022/07/13 01:40:15;;;;;;;1.13;1.13;;;23.40;60.40;;;25.98;45.60;101911.38;5093985;28;20218;-60
2022/07/13 01:42:44;;;;;;;1.43;1.20;;;23.40;60.40;;;26.05;44.87;101900.44;5093623;28;20216;-60
2022/07/13 01:45:15;;;;;;;6.07;1.57;;;23.40;60.30;;;26.11;45.49;101910.25;5093668;28;20191;-60
2022/07/13 01:47:46;;;;;;;1.33;1.13;;;23.40;60.20;;;26.18;44.46;101905.50;5093447;28;20538;-57
2022/07/13 01:50:16;;;;;;;3.23;1.50;;;23.40;60.10;;;26.23;44.59;101908.25;5093808;28;20193;-60
2022/07/13 01:52:44;;;;;;;1.40;1.30;;;23.50;60.10;;;26.27;44.29;101906.69;5094398;28;20204;-60
2022/07/13 01:55:14;;;;;;;1.80;1.67;;;23.50;60.00;;;26.34;44.21;101910.03;5092970;28;20201;-60
2022/07/13 01:57:42;;;;;;;3.00;1.70;;;23.50;59.90;;;26.34;44.12;101901.91;5094053;28;20180;-59
2022/07/13 02:00:13;;;;;;;2.40;1.57;;;23.60;59.80;;;26.29;44.61;101893.78;5093922;28;20203;-60
2022/07/13 02:02:42;;;;;;;2.17;1.73;;;23.60;59.60;;;26.22;44.79;101889.63;5092219;28;20665;-60
2022/07/13 02:05:11;;;;;;;1.90;1.70;;;23.60;59.50;;;26.14;44.40;101888.16;5093874;28;20197;-60
2022/07/13 02:07:40;;;;;;;2.10;1.50;;;23.60;59.60;;;26.11;44.84;101896.75;5093755;28;20210;-58
2022/07/13 02:10:09;;;;;;;1.57;1.47;;;23.50;59.60;;;26.09;45.05;101890.75;5094703;28;20549;-60
2022/07/13 02:12:39;;;;;;;2.20;1.50;;;23.50;59.60;;;26.06;44.81;101885.84;5093621;28;20291;-60
2022/07/13 02:15:08;;;;;;;1.80;1.70;;;23.50;59.80;;;25.99;45.12;101887.91;5093654;28;20181;-60
2022/07/13 02:17:36;;;;;;;1.40;1.30;;;23.40;60.00;;;25.96;45.13;101885.72;5093619;28;20188;-60
2022/07/13 02:20:05;;;;;;;1.60;1.50;;;23.40;59.90;;;25.97;44.95;101898.97;5093822;28;20660;-60
2022/07/13 02:22:43;;;;;;;2.40;1.50;;;23.40;60.00;;;25.91;45.52;101893.75;5093184;28;20215;-60
2022/07/13 02:25:11;;;;;;;2.43;1.37;;;23.40;60.20;;;25.94;45.11;101898.63;5093701;28;20192;-60
2022/07/13 02:27:40;;;;;;;2.60;1.60;;;23.40;60.30;;;25.94;45.74;101887.84;5094445;28;20207;-60
2022/07/13 02:30:09;;;;;;;1.73;1.63;;;23.40;60.30;;;25.95;44.99;101881.38;5093544;28;20675;-60
2022/07/13 02:32:38;;;;;;;1.40;1.30;;;23.40;60.30;;;25.95;45.28;101878.69;5092955;28;20205;-60
2022/07/13 02:35:07;;;;;;;2.10;1.43;;;23.40;60.20;;;25.92;45.66;101871.06;5093329;28;20189;-59
2022/07/13 02:37:34;;;;;;;2.23;1.63;;;23.40;60.40;;;25.88;45.69;101872.66;5094121;28;20199;-60
2022/07/13 02:40:02;;;;;;;1.40;1.30;;;23.30;60.30;;;25.84;45.83;101871.53;5092892;28;20196;-60
2022/07/13 02:42:29;;;;;;;1.30;1.20;;;23.30;60.30;;;25.82;45.10;101873.63;5094065;28;20292;-62
2022/07/13 02:44:58;;;;;;;1.67;1.57;;;23.30;60.40;;;25.81;45.37;101858.50;5094305;28;20200;-60
2022/07/13 02:47:25;;;;;;;1.63;1.50;;;23.30;60.50;;;25.80;45.83;101857.69;5094626;28;20189;-60
2022/07/13 02:49:53;;;;;;;1.47;1.37;;;23.30;60.50;;;25.78;45.54;101857.13;5095066;28;20249;-60
2022/07/13 02:52:20;;;;;;;1.60;1.50;;;23.30;60.70;;;25.76;45.97;101847.66;5093512;28;20205;-60
2022/07/13 02:54:47;;;;;;;1.87;1.70;;;23.20;60.70;;;25.73;46.21;101848.94;5094392;28;20556;-60
2022/07/13 02:57:16;;;;;;;2.63;1.70;;;23.20;60.80;;;25.73;46.14;101848.13;5094933;28;20579;-60
2022/07/13 02:59:43;;;;;;;1.60;1.50;;;23.20;61.00;;;25.71;45.98;101844.88;5094991;28;20191;-60
2022/07/13 03:02:12;;;;;;;1.30;1.20;;;23.20;60.90;;;25.73;45.72;101845.44;5092379;28;20209;-59
2022/07/13 03:04:40;;;;;;;1.80;1.70;;;23.20;61.00;;;25.74;46.26;101839.81;5093331;28;20189;-60
2022/07/13 03:07:07;;;;;;;1.67;1.57;;;23.20;61.10;;;25.74;45.64;101839.00;5092734;28;20188;-59
2022/07/13 03:09:35;;;;;;;1.50;1.40;;;23.20;61.20;;;25.71;46.32;101840.28;5093092;28;20191;-60
2022/07/13 03:12:02;;;;;;;1.90;1.80;;;23.20;61.20;;;25.70;45.75;101835.16;5092679;28;20220;-60
2022/07/13 03:14:30;;;;;;;2.20;1.63;;;23.10;61.20;;;25.67;46.41;101824.84;5095410;28;20215;-60
2022/07/13 03:16:57;;;;;;;1.43;1.33;;;23.10;61.30;;;25.66;45.93;101831.31;5097607;28;20267;-60
2022/07/13 03:19:26;;;;;;;1.90;1.80;;;23.10;61.30;;;25.63;45.85;101829.91;5096374;28;20193;-60
2022/07/13 03:21:53;;;;;;;1.80;1.57;;;23.10;61.40;;;25.64;46.54;101828.03;5096092;28;20235;-61
2022/07/13 03:24:21;;;;;;;1.80;1.70;;;23.00;61.40;;;25.60;46.03;101832.31;5095539;28;20204;-60
2022/07/13 03:26:48;;;;;;;2.03;1.93;;;23.00;61.60;;;25.61;46.58;101828.53;5096494;28;20199;-60
2022/07/13 03:29:15;;;;;;;3.10;1.50;;;23.00;61.50;;;25.60;46.11;101833.13;5096783;28;20286;-59
2022/07/13 03:31:43;;;;;;;1.63;1.53;;;23.00;61.50;;;25.62;46.51;101835.56;5095656;28;20215;-58
2022/07/13 03:34:10;;;;;;;2.53;1.90;;;23.00;61.70;;;25.63;46.06;101832.59;5097196;28;20238;-61
2022/07/13 03:36:39;;;;;;;2.10;1.90;;;23.00;61.70;;;25.65;46.00;101835.09;5094663;28;20185;-60
2022/07/13 03:39:06;;;;;;;2.67;1.70;;;23.00;61.70;;;25.65;45.93;101832.38;5096367;28;20204;-60
2022/07/13 03:41:33;;;;;;;1.50;1.40;;;23.00;61.70;;;25.65;46.57;101829.69;5095496;28;20201;-59
2022/07/13 03:44:01;;;;;;;1.50;1.40;;;23.00;61.70;;;25.63;46.68;101829.91;5096917;28;20204;-60
2022/07/13 03:46:29;;;;;;;1.80;1.70;;;23.00;61.80;;;25.61;46.00;101833.91;5096356;28;20184;-59
2022/07/13 03:48:56;;;;;;;2.30;2.10;;;23.00;61.80;;;25.59;46.12;101827.97;5095994;28;20575;-60
2022/07/13 03:51:23;;;;;;;1.53;1.37;;;23.00;61.90;;;25.60;46.19;101826.91;5096180;28;20639;-60
2022/07/13 03:53:52;;;;;;;2.43;1.60;;;23.00;62.60;;;25.60;46.04;101811.53;5095982;28;20211;-60
2022/07/13 03:56:19;;;;;;;2.47;1.90;;;23.00;61.90;;;25.63;46.62;101815.59;5095926;28;20189;-60
2022/07/13 03:58:47;;;;;;;1.63;1.53;;;23.00;61.90;;;25.65;46.69;101816.19;5096336;28;20189;-60
2022/07/13 04:01:16;;;;;;;2.20;1.77;;;23.00;62.00;;;25.66;46.62;101804.31;5095242;28;20209;-60
2022/07/13 04:03:44;;;;;;;1.57;1.47;;;23.00;62.00;;;25.65;46.16;101806.19;5103480;28;20517;-60
2022/07/13 04:06:11;;;;;;;1.73;1.63;;;23.00;62.00;;;25.65;46.14;101802.72;5116075;28;20195;-60
2022/07/13 04:08:39;;;;;;;1.77;1.67;;;23.00;62.00;;;25.66;46.71;101798.94;5115921;28;20210;-60
2022/07/13 04:11:07;;;;;;;2.10;2.00;;;23.00;62.00;;;25.69;46.13;101793.88;5115248;28;20207;-58
2022/07/13 04:13:35;;;;;;;1.50;1.40;;;23.10;62.10;;;25.72;46.64;101792.56;5116366;28;20180;-60
2022/07/13 04:16:03;;;;;;;1.70;1.60;;;23.00;62.10;;;25.74;46.06;101795.81;5115871;28;20188;-60
2022/07/13 04:18:31;;;;;;;2.13;1.73;;;23.10;62.20;;;25.76;46.50;101788.28;5114036;27;20214;-60
2022/07/13 04:20:59;;;;;;;1.77;1.67;;;23.10;62.20;;;25.79;46.58;101787.81;5114918;28;20192;-58
2022/07/13 04:23:28;;;;;;;1.80;1.70;;;23.10;62.10;;;25.81;45.86;101782.97;5115812;28;20669;-59
2022/07/13 04:25:56;;;;;;;3.27;2.13;;;23.10;62.10;;;25.86;46.54;101766.84;5114825;28;20188;-60
2022/07/13 04:28:25;;;;;;;4.90;1.93;;;23.10;62.10;;;25.89;46.49;101771.72;5115070;28;20207;-60
2022/07/13 04:30:52;;;;;;;2.43;2.20;;;23.20;62.20;;;25.89;46.45;101782.50;5115126;28;20628;-59
2022/07/13 04:33:20;;;;;;;2.00;1.90;;;23.20;62.20;;;25.91;46.32;101796.59;5114529;28;20203;-59
2022/07/13 04:35:47;;;;;;;2.03;1.83;;;23.20;62.10;;;25.97;46.12;101800.97;5115220;28;20632;-60
2022/07/13 04:38:15;;;;;;;1.80;1.70;;;23.20;62.10;;;26.00;46.33;101795.09;5115763;28;20188;-60
2022/07/13 04:40:42;;;;;;;5.43;1.70;;;23.20;62.00;;;26.02;46.30;101799.16;5114733;28;20195;-59
2022/07/13 04:43:09;;;;;;;2.90;1.83;;;23.30;62.00;;;26.01;46.02;101796.69;5114986;28;20656;-60
2022/07/13 04:45:38;;;;;;;1.70;1.60;;;23.30;61.90;;;26.04;45.73;101793.50;5114875;28;20226;-59
2022/07/13 04:48:06;;;;;;;2.23;2.03;;;23.30;61.90;;;26.06;45.58;101783.28;5115204;28;20190;-59
2022/07/13 04:50:33;;;;;;;5.10;1.93;;;23.40;61.90;;;26.08;46.04;101775.75;5112985;28;20662;-57
2022/07/13 04:53:01;;;;;;;1.97;1.87;;;23.40;61.70;;;26.09;45.47;101777.38;5115091;28;20204;-60
2022/07/13 04:55:28;;;;;;;3.30;1.80;;;23.40;61.70;;;26.08;46.12;101781.97;5114597;27;20200;-60
2022/07/13 04:57:57;;;;;;;2.73;2.00;;;23.40;61.50;;;26.09;46.19;101778.22;5115082;28;20187;-60
2022/07/13 05:00:24;;;;;;;4.50;1.80;;;23.40;61.50;;;26.09;45.53;101772.81;5114886;28;20193;-59
2022/07/13 05:02:53;;;;;;;2.50;2.23;;;23.40;61.40;;;26.10;46.16;101768.22;5114968;28;20210;-59
2022/07/13 05:05:21;;;;;;;3.03;2.23;;;23.40;61.50;;;26.12;45.76;101774.22;5114725;28;20192;-59
2022/07/13 05:07:49;;;;;;;2.20;1.53;;;23.40;61.50;;;26.10;45.69;101769.06;5102626;28;20196;-59
2022/07/13 05:10:16;;;;;;;2.37;2.17;;;23.50;61.60;;;26.12;45.71;101766.13;5094199;28;20199;-59
2022/07/13 05:12:43;;;;;;;3.37;2.17;;;23.50;61.60;;;26.15;46.18;101771.00;5093909;28;20681;-58
2022/07/13 05:15:12;;;;;;;1.90;1.80;;;23.50;61.70;;;26.18;46.05;101765.09;5094182;28;20230;-59
2022/07/13 05:17:39;;;;;;;1.97;1.87;;;23.50;61.70;;;26.22;45.69;101760.03;5094125;28;20188;-59
2022/07/13 05:20:10;;;;;;;3.03;2.30;;;23.50;61.90;;;26.24;46.29;101756.00;5094034;28;20219;-58
2022/07/13 05:22:37;;;;;;;2.03;1.93;;;23.50;61.90;;;26.26;45.89;101761.13;5093313;28;20208;-59
2022/07/13 05:25:06;;;;;;;2.17;1.83;;;23.50;61.90;;;26.26;45.84;101761.97;5110086;28;20192;-59
2022/07/13 05:27:33;;;;;;;2.03;1.90;;;23.60;61.90;;;26.26;46.13;101761.97;5113885;28;20664;-59
2022/07/13 05:30:01;;;;;;;2.30;1.70;;;23.60;62.00;;;26.27;46.20;101768.97;5114787;28;20647;-59
2022/07/13 05:32:29;;;;;;;1.97;1.87;;;23.60;62.00;;;26.28;46.23;101765.22;5113684;28;20272;-59
2022/07/13 05:34:56;;;;;;;3.20;2.13;;;23.60;62.00;;;26.29;46.27;101766.88;5114066;28;20218;-59
2022/07/13 05:37:25;;;;;;;2.10;2.00;;;23.60;62.00;;;26.33;45.86;101761.75;5113852;27;20270;-59
2022/07/13 05:39:53;;;;;;;2.93;2.30;;;23.60;62.00;;;26.37;45.36;101760.16;5114317;28;20207;-64
2022/07/13 05:42:20;;;;;;;2.97;2.20;;;23.60;61.80;;;26.43;45.43;101756.47;5111595;28;20587;-59
2022/07/13 05:44:48;;;;;;;4.40;2.47;;;23.70;61.80;;;26.47;45.65;101753.00;5114099;28;20235;-60
2022/07/13 05:47:16;;;;;;;2.60;2.40;;;23.70;61.70;;;26.51;45.43;101758.69;5114242;28;20187;-59
2022/07/13 05:49:43;;;;;;;2.87;2.07;;;23.70;61.50;;;26.56;45.31;101751.47;5113649;28;20613;-61
2022/07/13 05:52:10;;;;;;;3.87;2.23;;;23.80;61.40;;;26.63;45.07;101743.97;5113375;28;20215;-60
2022/07/13 05:54:39;;;;;;;2.50;2.20;;;23.90;61.50;;;26.73;45.24;101751.34;5114334;28;20552;-57
2022/07/13 05:57:11;;;;;;;4.20;2.60;;;23.90;62.10;;;26.79;45.02;101744.97;5103617;28;20216;-59
2022/07/13 05:59:41;;;;;;;2.77;2.57;;;24.00;61.00;;;26.88;45.17;101753.41;5093111;28;20193;-60
2022/07/13 06:02:08;;;;;;;5.97;3.13;;;24.10;61.00;;;26.95;44.54;101754.00;5093120;28;20216;-60
2022/07/13 06:04:36;;;;;;;2.50;2.30;;;24.10;60.60;;;26.98;44.25;101756.19;5093073;28;20224;-60
2022/07/13 06:07:03;;;;;;;2.60;2.40;;;24.20;60.40;;;27.06;44.25;101756.53;5093044;28;20215;-60
2022/07/13 06:09:31;;;;;;;3.63;2.30;;;24.20;60.30;;;27.16;44.18;101750.38;5092932;28;20724;-59
2022/07/13 06:12:00;;;;;;;4.30;3.10;;;24.30;60.10;;;27.23;43.80;101745.56;5092644;28;20600;-59
2022/07/13 06:14:27;;;;;;;3.63;2.33;;;24.40;60.40;;;27.31;43.65;101747.78;5110856;28;20533;-59
2022/07/13 06:16:55;;;;;;;4.40;2.83;;;24.40;59.50;;;27.32;43.44;101747.53;5113479;28;20191;-59
2022/07/13 06:19:22;;;;;;;2.37;2.23;;;24.50;59.20;;;27.37;43.18;101742.19;5113439;28;20188;-59
2022/07/13 06:21:49;;;;;;;2.47;2.27;;;24.50;58.90;;;27.40;43.34;101740.84;5112951;28;20215;-61
2022/07/13 06:24:17;;;;;;;6.33;2.43;;;24.60;59.30;;;27.47;43.18;101741.44;5113432;28;20207;-59
2022/07/13 06:26:45;;;;;;;4.10;3.03;;;24.60;58.70;;;27.54;42.83;101733.88;5112621;28;20199;-59
2022/07/13 06:29:13;;;;;;;2.93;2.63;;;24.70;58.70;;;27.63;43.08;101735.00;5111211;28;20662;-60
2022/07/13 06:31:41;;;;;;;4.97;2.53;;;24.80;58.50;;;27.70;42.65;101735.59;5112782;28;20211;-57
2022/07/13 06:34:08;;;;;;;3.93;2.30;;;24.80;58.30;;;27.79;42.39;101733.19;5113339;28;20187;-59
2022/07/13 06:36:38;;;;;;;2.50;2.30;;;24.90;58.10;;;27.85;42.28;101738.38;5113054;28;20188;-59
2022/07/13 06:39:06;;;;;;;2.90;2.70;;;24.90;58.10;;;27.93;41.78;101735.13;5113199;28;20208;-60
2022/07/13 06:41:33;;;;;;;3.50;3.20;;;24.90;57.60;;;28.00;41.46;101735.72;5112782;28;20225;-59
2022/07/13 06:44:01;;;;;;;3.53;2.30;;;25.00;57.50;;;28.08;41.53;101721.69;5112752;28;20532;-61
2022/07/13 06:46:30;;;;;;;3.40;2.53;;;25.10;57.50;;;28.15;41.10;101722.25;5109552;28;20198;-60
2022/07/13 06:48:58;;;;;;;3.10;2.77;;;25.10;57.20;;;28.23;41.13;101722.81;5114642;28;20234;-60
2022/07/13 06:51:25;;;;;;;2.37;2.17;;;25.20;57.20;;;28.31;41.20;101722.28;5115394;28;20706;-60
2022/07/13 06:53:52;;;;;;;3.20;2.70;;;25.20;57.00;;;28.38;40.58;101714.72;5116935;28;20192;-60
2022/07/13 06:56:23;;;;;;;3.67;2.80;;;25.30;56.40;;;28.41;40.53;101711.47;5116546;28;20188;-57
2022/07/13 06:58:50;;;;;;;4.20;2.73;;;25.40;56.20;;;28.43;40.43;101710.09;5116853;28;20195;-59
2022/07/13 07:01:19;;;;;;;2.10;1.90;;;25.40;55.90;;;28.47;40.53;101710.38;5116871;28;20298;-59
2022/07/13 07:03:48;;;;;;;3.77;3.37;;;25.50;56.00;;;28.50;40.24;101707.94;5100232;28;20599;-60
2022/07/13 07:06:15;;;;;;;4.83;2.97;;;25.50;55.80;;;28.54;40.66;101708.22;5095167;28;20192;-60
2022/07/13 07:08:43;;;;;;;4.80;2.60;;;25.60;56.10;;;28.56;40.43;101701.44;5096326;28;20196;-60
2022/07/13 07:11:10;;;;;;;3.43;2.57;;;25.60;55.70;;;28.56;40.34;101711.47;5096465;28;20215;-57
2022/07/13 07:13:40;;;;;;;3.93;2.10;;;25.60;55.60;;;28.54;40.33;101708.22;5108934;28;20184;-58
2022/07/13 07:16:10;;;;;;;2.70;2.23;;;25.70;55.50;;;28.52;40.31;101708.50;5117326;28;20207;-56
2022/07/13 07:18:44;;;;;;;7.17;6.47;;;25.70;55.40;;;28.57;40.49;101705.78;5115912;28;20240;-59
2022/07/13 07:21:33;;;;;;;2.70;2.20;;;25.70;55.70;;;28.67;40.23;101705.81;5114954;28;20226;-58
2022/07/13 07:24:01;;;;;;;2.33;2.13;;;25.80;55.50;;;28.73;39.85;101706.63;5116497;28;20212;-59
2022/07/13 07:26:30;;;;;;;4.07;2.63;;;25.80;55.20;;;28.82;39.91;101699.56;5113223;27;20199;-58
2022/07/13 07:28:58;;;;;;;2.20;2.00;;;25.90;54.90;;;28.95;39.59;101696.31;5095075;28;20253;-59
2022/07/13 07:31:26;;;;;;;1.90;1.80;;;25.90;54.80;;;29.08;39.38;101698.47;5095936;28;20212;-57
2022/07/13 07:33:53;;;;;;;2.20;2.00;;;26.00;54.60;;;29.22;39.68;101691.41;5095947;28;20268;-59
2022/07/13 07:36:21;;;;;;;1.97;1.87;;;26.10;54.50;;;29.34;38.88;101691.91;5096032;28;20262;-59
2022/07/13 07:38:50;;;;;;;2.23;1.70;;;26.20;53.80;;;29.42;38.58;101688.66;5095965;28;20192;-56
2022/07/13 07:41:18;;;;;;;2.60;2.00;;;26.30;53.30;;;29.47;37.81;101696.78;5095635;28;20216;-58
2022/07/13 07:43:46;;;;;;;2.53;1.87;;;26.40;53.10;;;29.50;37.59;101690.78;5096827;28;20299;-57
2022/07/13 07:46:14;;;;;;;2.83;2.10;;;26.40;52.50;;;29.54;37.90;101690.22;5112378;28;20645;-56
2022/07/13 07:48:42;;;;;;;2.77;2.30;;;26.50;52.40;;;29.56;37.58;101688.03;5095850;28;20199;-60
2022/07/13 07:51:10;;;;;;;2.33;1.67;;;26.50;51.90;;;29.60;37.43;101694.56;5094650;28;20234;-56
2022/07/13 07:53:38;;;;;;;3.87;1.90;;;26.60;51.40;;;29.61;36.53;101688.84;5095764;28;20211;-57
2022/07/13 07:56:07;;;;;;;2.43;1.83;;;26.60;50.90;;;29.61;36.58;101688.03;5095767;28;20561;-57
2022/07/13 07:58:35;;;;;;;2.20;1.83;;;26.60;50.80;;;29.63;36.44;101683.94;5095443;28;20617;-58
2022/07/13 08:01:02;;;;;;;1.80;1.70;;;26.60;50.70;;;29.67;36.57;101678.78;5112716;28;20214;-56
2022/07/13 08:03:30;;;;;;;3.97;1.93;;;26.70;51.30;;;29.70;36.49;101675.50;5114230;28;20676;-58
2022/07/13 08:05:57;;;;;;;2.27;2.07;;;26.70;50.50;;;29.75;36.52;101681.72;5115958;28;20184;-59
2022/07/13 08:08:26;;;;;;;2.47;2.20;;;26.70;50.60;;;29.84;36.48;101673.81;5116222;28;20206;-58
2022/07/13 08:10:54;;;;;;;3.43;1.90;;;26.80;50.60;;;29.91;35.98;101677.84;5115444;28;20578;-59
2022/07/13 08:13:23;;;;;;;2.00;1.90;;;26.90;50.30;;;29.99;36.11;101685.44;5115568;28;20201;-59
2022/07/13 08:15:51;;;;;;;5.37;2.20;;;26.90;49.90;;;30.02;35.73;101682.13;5114995;28;20184;-60
2022/07/13 08:18:19;;;;;;;2.13;1.93;;;26.90;49.70;;;30.06;35.85;101682.41;5097464;28;20644;-57
2022/07/13 08:21:07;;;;;;;2.80;2.00;;;27.00;49.60;;;30.16;36.05;101679.63;5113943;28;20212;-58
2022/07/13 08:23:52;;;;;;;2.93;2.10;;;27.10;49.80;;;30.25;36.13;101672.47;5115120;28;20191;-57
2022/07/13 08:26:23;;;;;;;2.87;2.40;;;27.10;49.80;;;30.33;35.77;101669.22;5115179;28;20274;-60
2022/07/13 08:28:52;;;;;;;4.70;3.30;;;27.20;49.50;;;30.41;35.32;101668.59;5114161;28;20199;-59
2022/07/13 08:31:22;;;;;;;2.40;2.20;;;27.30;49.50;;;30.50;35.75;101675.03;5114829;28;20286;-58
2022/07/13 08:39:25;;;;;;;3.43;2.33;;;27.50;49.30;;;30.89;34.78;101674.19;5072909;28;20201;-58
2022/07/13 08:41:56;;;;;;;3.77;2.20;;;27.60;49.30;;;31.01;35.41;101678.13;5074029;28;20213;-58
2022/07/13 08:44:26;;;;;;;3.67;2.30;;;27.70;49.40;;;31.09;34.61;101674.81;5074721;28;20213;-59
2022/07/13 08:46:53;;;;;;;4.47;2.33;;;27.80;48.80;;;31.21;35.18;101672.47;5074139;28;20258;-59
2022/07/13 08:49:25;;;;;;;2.50;2.30;;;27.90;49.10;;;31.39;34.28;101674.44;5089670;28;20192;-58
2022/07/13 08:51:53;;;;;;;2.13;2.03;;;28.00;48.80;;;31.64;33.86;101675.28;5094526;28;20208;-60
2022/07/13 08:54:20;;;;;;;2.43;2.23;;;28.10;48.40;;;31.97;33.24;101672.34;5096553;28;20217;-57
2022/07/13 08:56:52;;;;;;;4.93;2.77;;;28.30;48.20;;;32.51;32.71;101660.13;5107930;28;20239;-61
2022/07/13 08:59:19;;;;;;;2.27;2.07;;;28.50;47.80;;;33.21;32.00;101661.56;5095201;28;20709;-60
2022/07/13 09:01:49;;;;;;;1.93;1.83;;;28.90;47.50;;;34.26;30.52;101659.56;5094158;28;20218;-60
2022/07/13 09:04:17;;;;;;;3.83;2.03;;;29.30;47.20;;;35.55;29.31;101659.16;5093665;28;20220;-59
2022/07/13 09:06:48;;;;;;;3.27;2.50;;;29.90;45.80;;;37.01;26.22;101657.13;5105297;28;20224;-59
2022/07/13 09:09:31;;;;;;;2.40;2.20;;;30.70;43.10;;;38.59;25.41;101651.41;5093723;28;20192;-58
2022/07/13 09:12:21;;;;;;;4.97;4.57;;;31.70;41.50;;;39.90;22.88;101656.47;5092227;28;20622;-59
2022/07/13 09:14:54;;;;;;;3.58;3.38;;;32.60;38.50;;;40.95;21.73;101652.28;5091787;28;20196;-59
2022/07/13 09:17:31;;;;;;;4.60;3.42;;;33.60;36.80;;;41.87;20.88;101635.00;5092917;28;20220;-59
2022/07/13 09:20:14;;;;;;;2.47;2.30;;;34.40;34.80;;;42.84;20.30;101644.78;5093392;28;20199;-59
2022/07/13 09:22:48;;;;;;;2.78;2.58;;;35.20;34.00;;;43.72;18.90;101635.81;5096348;27;20234;-60
2022/07/13 09:25:29;;;;;;;4.50;3.13;;;35.90;31.20;;;44.27;18.21;101636.06;5112433;28;20211;-59
2022/07/13 09:28:01;;;;;;;6.40;2.90;;;36.60;29.50;;;44.65;18.15;101630.09;5113296;28;20656;-60
2022/07/13 09:30:29;;;;;;;4.15;2.75;;;37.20;29.30;;;45.11;16.58;101624.88;5112575;28;20196;-60
2022/07/13 09:32:59;;;;;;;4.63;2.42;;;37.60;27.90;;;45.62;16.27;101617.25;5113727;27;20273;-60
2022/07/13 09:35:45;;;;;;;4.50;3.65;;;38.10;27.40;;;46.41;16.57;101613.50;5114006;28;20191;-60
2022/07/13 09:38:31;;;;;;;3.53;3.28;;;38.60;27.90;;;47.24;15.27;101613.06;5111667;28;20202;-61
2022/07/13 09:41:18;;;;;;;4.10;2.72;;;39.00;26.20;;;47.81;15.06;101613.66;5093359;28;20685;-60
2022/07/13 09:46:55;;;;;;;2.92;2.60;;;39.80;25.40;;;47.47;14.59;101608.59;5113740;28;20209;-60
2022/07/13 09:49:34;;;;;;;3.25;2.92;;;40.10;24.80;;;47.41;14.48;101609.38;5112234;28;20720;-60
2022/07/13 09:52:06;;;;;;;10.15;3.08;;;40.20;24.30;;;47.65;14.34;101613.28;5113638;28;20624;-58
2022/07/13 09:54:35;;;;;;;4.70;3.03;;;40.30;24.40;;;47.82;14.38;101606.84;5113498;27;20616;-59
2022/07/13 09:57:06;;;;;;;3.20;3.00;;;40.40;24.40;;;48.19;14.21;101609.84;5112112;28;20202;-59
2022/07/13 09:59:35;;;;;;;2.50;2.30;;;40.50;24.30;;;48.59;14.02;101602.72;5112309;28;20290;-59
2022/07/13 10:02:04;;;;;;;2.67;2.47;;;40.70;24.10;;;49.01;13.81;101609.91;5113047;28;20207;-58
2022/07/13 10:04:35;;;;;;;2.53;2.42;;;40.90;24.00;;;48.96;13.60;101604.78;5113656;28;20242;-60
2022/07/13 10:07:16;;;;;;;3.97;3.60;;;41.00;23.60;;;49.06;13.84;101601.06;5113439;28;20597;-59
2022/07/13 10:09:44;;;;;;;3.78;2.72;;;41.20;23.90;;;49.44;13.43;101611.84;5113221;28;20192;-60
2022/07/13 10:12:12;;;;;;;3.20;2.38;;;41.40;23.70;;;49.79;13.39;101604.97;5112306;28;20652;-59
2022/07/13 10:14:41;;;;;;;3.05;2.80;;;41.60;23.30;;;49.76;13.21;101616.25;5111811;28;20191;-58
2022/07/13 10:17:13;;;;;;;3.50;2.78;;;41.70;22.80;;;49.65;13.41;101610.78;5113128;28;20184;-59
2022/07/13 10:19:49;;;;;;;3.40;2.63;;;41.70;22.90;;;49.69;12.32;101617.13;5113218;28;20204;-58
2022/07/13 10:22:21;;;;;;;2.95;2.75;;;41.80;22.70;;;49.34;12.92;101611.97;5111344;28;20210;-59
2022/07/13 10:24:52;;;;;;;4.20;2.97;;;41.80;22.70;;;49.39;12.96;101614.28;5114616;28;20211;-58
2022/07/13 10:27:22;;;;;;;3.88;3.05;;;41.80;22.70;;;49.47;13.42;101615.81;5116294;28;20190;-58
2022/07/13 10:29:53;;;;;;;3.80;3.40;;;41.70;23.00;;;49.31;12.78;101621.19;5117696;28;20191;-59